Time;durP1;ratioP1;P1;durP2;ratioP2;P2;SDS_P1;SDS_P2;PMS_P1;PMS_P2;Temp;Humidity;BMP_temperature;BMP_pressure;BME280_temperature;BME280_humidity;BME280_pressure;Samples;Min_cycle;Max_cycle;Signal;HPM_P1;HPM_P2
2021/11/01 00:01:21;;;;;;;15.25;3.13;;;10.10;99.90;;;;;;5024343;28;20033;-57
2021/11/01 00:03:46;;;;;;;14.23;2.38;;;10.00;99.90;;;;;;5021755;28;20075;-56
2021/11/01 00:06:12;;;;;;;10.13;2.42;;;10.00;99.90;;;;;;5025217;28;20084;-58
2021/11/01 00:08:37;;;;;;;9.93;2.17;;;9.90;99.90;;;;;;5020363;28;20022;-59
2021/11/01 00:11:04;;;;;;;12.95;2.83;;;9.90;99.90;;;;;;5010244;28;20029;-59
2021/11/01 00:13:29;;;;;;;4.88;1.83;;;9.80;99.90;;;;;;5021674;28;20053;-58
2021/11/01 00:15:56;;;;;;;11.48;2.45;;;9.80;99.90;;;;;;5016868;28;20409;-59
2021/11/01 00:18:22;;;;;;;11.43;2.35;;;9.70;99.90;;;;;;5012336;28;20143;-58
2021/11/01 00:20:47;;;;;;;18.27;2.85;;;9.60;99.90;;;;;;5019246;28;20495;-58
2021/11/01 00:23:13;;;;;;;12.40;2.10;;;9.50;99.90;;;;;;5016133;28;20026;-58
2021/11/01 00:25:39;;;;;;;8.57;2.08;;;9.40;99.90;;;;;;5026190;28;20044;-59
2021/11/01 00:28:05;;;;;;;15.00;2.05;;;9.30;99.90;;;;;;5018973;28;20052;-58
2021/11/01 00:30:30;;;;;;;11.50;2.30;;;9.30;99.90;;;;;;5017033;28;20029;-59
2021/11/01 00:32:56;;;;;;;12.77;2.30;;;9.20;99.90;;;;;;5022071;28;20096;-59
2021/11/01 00:35:22;;;;;;;8.15;2.30;;;9.10;99.90;;;;;;5016003;28;20112;-58
2021/11/01 00:37:48;;;;;;;23.45;5.38;;;9.10;99.90;;;;;;5018856;28;20388;-57
2021/11/01 00:40:14;;;;;;;8.13;2.40;;;9.10;99.90;;;;;;5029101;28;20053;-59
2021/11/01 00:42:39;;;;;;;8.63;2.22;;;9.00;99.90;;;;;;5024091;28;20061;-59
2021/11/01 00:45:05;;;;;;;13.02;2.60;;;8.90;99.90;;;;;;5029804;28;20488;-57
2021/11/01 00:47:31;;;;;;;20.13;2.72;;;8.90;99.90;;;;;;5025563;28;20045;-58
2021/11/01 00:49:56;;;;;;;13.88;2.20;;;8.90;99.90;;;;;;5025622;28;20033;-58
2021/11/01 00:52:26;;;;;;;16.02;2.60;;;8.90;99.90;;;;;;5023973;28;20037;-59
2021/11/01 00:54:58;;;;;;;13.27;3.60;;;8.80;99.90;;;;;;5015851;28;20034;-59
2021/11/01 00:57:24;;;;;;;17.75;2.50;;;8.80;99.90;;;;;;5020746;28;20080;-58
2021/11/01 00:59:49;;;;;;;11.00;2.50;;;8.80;99.90;;;;;;5015515;28;20439;-57
2021/11/01 01:02:15;;;;;;;12.48;2.85;;;8.80;99.90;;;;;;5022865;28;20140;-57
2021/11/01 01:04:41;;;;;;;15.38;3.60;;;8.80;99.90;;;;;;5028272;28;20084;-57
2021/11/01 01:07:06;;;;;;;11.18;3.03;;;8.90;99.90;;;;;;5020199;28;20030;-58
2021/11/01 01:09:33;;;;;;;20.00;4.35;;;8.90;99.90;;;;;;5029128;28;20033;-59
2021/11/01 01:11:59;;;;;;;12.48;3.28;;;8.90;99.90;;;;;;5028475;28;20479;-57
2021/11/01 01:14:27;;;;;;;12.60;2.47;;;8.90;99.90;;;;;;5028896;28;20029;-57
2021/11/01 01:16:53;;;;;;;15.07;4.00;;;8.90;99.90;;;;;;5019205;28;20099;-59
2021/11/01 01:19:23;;;;;;;17.70;3.25;;;9.00;99.90;;;;;;5019873;28;20057;-57
2021/11/01 01:24:34;;;;;;;16.98;4.80;;;9.00;99.90;;;;;;5023517;28;20052;-59
2021/11/01 01:26:59;;;;;;;15.65;3.50;;;9.10;99.90;;;;;;5032205;23;20049;-59
2021/11/01 01:29:25;;;;;;;10.85;3.00;;;9.10;99.90;;;;;;5014013;28;20026;-60
2021/11/01 01:31:51;;;;;;;20.10;3.40;;;9.10;99.90;;;;;;5015631;28;20048;-60
2021/11/01 01:34:18;;;;;;;16.88;3.67;;;9.10;99.90;;;;;;5016705;28;20419;-59
2021/11/01 01:36:45;;;;;;;24.52;3.05;;;9.10;99.90;;;;;;5019894;28;20026;-59
2021/11/01 01:39:11;;;;;;;13.10;2.88;;;9.10;99.90;;;;;;5004381;28;20064;-59
2021/11/01 01:41:44;;;;;;;14.63;2.78;;;9.10;99.90;;;;;;5015260;28;20113;-59
2021/11/01 01:44:10;;;;;;;8.65;2.10;;;9.10;99.90;;;;;;5017968;28;20033;-59
2021/11/01 01:46:35;;;;;;;14.85;3.13;;;9.10;99.90;;;;;;4984775;28;20071;-58
2021/11/01 01:49:01;;;;;;;15.95;3.40;;;9.10;99.90;;;;;;4996903;28;20030;-58
2021/11/01 01:51:29;;;;;;;14.35;3.30;;;9.10;99.90;;;;;;5017241;28;20022;-60
2021/11/01 01:53:55;;;;;;;15.15;2.55;;;9.10;99.90;;;;;;5026848;28;20037;-62
2021/11/01 01:56:23;;;;;;;17.92;2.53;;;9.10;99.90;;;;;;5024746;28;20034;-60
2021/11/01 01:58:56;;;;;;;11.07;3.30;;;9.10;99.90;;;;;;5025844;28;20367;-60
2021/11/01 02:01:22;;;;;;;14.00;2.22;;;9.10;99.90;;;;;;5021009;28;20035;-60
2021/11/01 02:03:50;;;;;;;8.70;3.03;;;9.10;99.90;;;;;;5025774;28;20045;-62
2021/11/01 02:06:48;;;;;;;11.90;2.35;;;9.10;99.90;;;;;;5020262;28;20030;-61
2021/11/01 02:09:36;;;;;;;11.80;2.55;;;9.10;99.90;;;;;;5028539;28;20033;-60
2021/11/01 02:12:25;;;;;;;15.52;3.15;;;9.10;99.90;;;;;;5019989;28;20038;-60
2021/11/01 02:14:56;;;;;;;13.68;2.53;;;9.00;99.90;;;;;;5025865;28;20116;-61
2021/11/01 02:17:29;;;;;;;17.10;2.72;;;9.00;99.90;;;;;;5007219;28;20677;-60
2021/11/01 02:20:09;;;;;;;8.45;2.22;;;9.00;99.90;;;;;;5030641;28;20083;-60
2021/11/01 02:23:11;;;;;;;7.95;2.20;;;9.00;99.90;;;;;;5021360;28;20033;-60
2021/11/01 02:25:40;;;;;;;6.53;2.03;;;9.00;99.90;;;;;;5015161;28;20844;-63
2021/11/01 02:28:10;;;;;;;14.95;2.67;;;9.00;99.90;;;;;;5022400;28;20410;-60
2021/11/01 02:30:40;;;;;;;12.25;2.17;;;9.00;99.90;;;;;;5028595;28;20022;-59
2021/11/01 02:33:07;;;;;;;10.10;2.30;;;9.00;99.90;;;;;;5021426;28;20124;-59
2021/11/01 02:35:33;;;;;;;9.80;2.05;;;9.00;99.90;;;;;;5024493;28;20029;-58
2021/11/01 02:38:00;;;;;;;16.40;3.33;;;9.00;99.90;;;;;;5017297;28;20117;-59
2021/11/01 02:40:28;;;;;;;11.10;2.85;;;8.90;99.90;;;;;;5018082;28;20091;-61
2021/11/01 02:42:55;;;;;;;13.77;2.30;;;8.90;99.90;;;;;;5014419;28;20086;-61
2021/11/01 02:45:21;;;;;;;12.50;2.40;;;8.90;99.90;;;;;;5019504;28;20302;-62
2021/11/01 02:47:47;;;;;;;18.38;4.07;;;8.90;99.90;;;;;;5021893;28;20029;-60
2021/11/01 02:50:15;;;;;;;9.05;2.10;;;8.90;99.90;;;;;;5022597;28;20030;-56
2021/11/01 02:52:41;;;;;;;15.98;2.45;;;8.80;99.90;;;;;;5021721;28;20026;-60
2021/11/01 02:55:09;;;;;;;13.88;3.10;;;8.90;99.90;;;;;;5015350;28;20025;-60
2021/11/01 02:57:35;;;;;;;12.30;3.08;;;8.80;99.90;;;;;;5019281;28;20036;-59
2021/11/01 03:00:01;;;;;;;10.13;2.60;;;8.80;99.90;;;;;;5004950;28;20042;-60
2021/11/01 03:02:27;;;;;;;8.20;2.10;;;8.80;99.90;;;;;;5019466;28;20049;-61
2021/11/01 03:04:52;;;;;;;13.98;2.55;;;8.80;99.90;;;;;;5028603;28;20064;-60
2021/11/01 03:07:19;;;;;;;8.68;2.25;;;8.70;99.90;;;;;;5025370;28;20102;-60
2021/11/01 03:09:46;;;;;;;11.25;2.20;;;8.70;99.90;;;;;;5030501;28;20017;-61
2021/11/01 03:12:13;;;;;;;17.77;5.72;;;8.70;99.90;;;;;;5025552;28;20511;-59
2021/11/01 03:14:49;;;;;;;6.72;2.17;;;8.70;99.90;;;;;;5022813;28;20570;-60
2021/11/01 03:17:21;;;;;;;19.70;2.30;;;8.70;99.90;;;;;;5020318;28;20033;-59
2021/11/01 03:20:11;;;;;;;6.88;2.28;;;8.70;99.90;;;;;;5022590;28;20391;-60
2021/11/01 03:22:44;;;;;;;8.50;2.63;;;8.70;99.90;;;;;;5021010;28;20037;-60
2021/11/01 03:25:19;;;;;;;8.97;2.00;;;8.70;99.90;;;;;;5011450;28;20041;-61
2021/11/01 03:27:47;;;;;;;12.90;3.72;;;8.70;99.90;;;;;;5013438;28;20058;-59
2021/11/01 03:30:15;;;;;;;10.02;2.08;;;8.70;99.90;;;;;;5028276;28;20074;-60
2021/11/01 03:32:40;;;;;;;10.63;2.30;;;8.70;99.90;;;;;;5010716;28;20049;-60
2021/11/01 03:35:08;;;;;;;12.18;2.60;;;8.70;99.90;;;;;;5018939;28;20487;-60
2021/11/01 03:37:34;;;;;;;27.75;2.67;;;8.70;99.90;;;;;;5019124;28;20033;-60
2021/11/01 03:40:01;;;;;;;13.88;2.03;;;8.70;99.90;;;;;;5028435;28;20104;-61
2021/11/01 03:42:27;;;;;;;17.15;2.78;;;8.70;99.90;;;;;;5023703;28;20030;-60
2021/11/01 03:45:00;;;;;;;9.52;2.15;;;8.60;99.90;;;;;;5025363;28;20038;-60
2021/11/01 03:47:29;;;;;;;9.10;2.40;;;8.60;99.90;;;;;;5023627;28;20096;-60
2021/11/01 03:50:00;;;;;;;7.82;2.10;;;8.70;99.90;;;;;;5027447;28;20280;-61
2021/11/01 03:52:28;;;;;;;11.23;2.30;;;8.70;99.90;;;;;;5019121;28;20046;-59
2021/11/01 03:54:54;;;;;;;9.98;2.25;;;8.60;99.90;;;;;;5015828;28;20427;-62
2021/11/01 03:57:21;;;;;;;15.25;2.60;;;8.60;99.90;;;;;;5006875;28;20131;-60
2021/11/01 03:59:47;;;;;;;8.60;2.35;;;8.60;99.90;;;;;;5028018;28;20586;-60
2021/11/01 04:02:16;;;;;;;7.90;1.88;;;8.60;99.90;;;;;;5023221;28;20065;-59
2021/11/01 04:04:44;;;;;;;14.70;2.30;;;8.60;99.90;;;;;;5029167;28;20030;-60
2021/11/01 04:07:09;;;;;;;10.95;2.25;;;8.50;99.90;;;;;;5004747;28;20084;-60
2021/11/01 04:09:35;;;;;;;13.48;2.10;;;8.50;99.90;;;;;;5017935;28;20026;-59
2021/11/01 04:12:01;;;;;;;14.52;2.08;;;8.50;99.90;;;;;;5027867;28;20037;-60
2021/11/01 04:14:29;;;;;;;21.75;2.40;;;8.50;99.90;;;;;;5019960;28;20021;-60
2021/11/01 04:17:00;;;;;;;10.73;2.50;;;8.40;99.90;;;;;;5016395;28;20087;-60
2021/11/01 04:21:54;;;;;;;12.80;2.10;;;8.40;99.90;;;;;;5019660;28;20462;-59
2021/11/01 04:24:21;;;;;;;13.70;2.53;;;8.40;99.90;;;;;;5029582;28;20040;-60
2021/11/01 04:26:48;;;;;;;14.75;2.63;;;8.30;99.90;;;;;;5011235;28;20034;-59
2021/11/01 04:29:15;;;;;;;13.85;2.33;;;8.30;99.90;;;;;;5020592;28;20028;-61
2021/11/01 04:31:44;;;;;;;12.02;2.50;;;8.20;99.90;;;;;;5023410;28;20021;-60
2021/11/01 04:34:17;;;;;;;19.17;3.28;;;8.10;99.90;;;;;;5028517;28;20394;-61
2021/11/01 04:36:43;;;;;;;10.02;2.10;;;8.00;99.90;;;;;;5029678;28;20026;-60
2021/11/01 04:53:09;;;;;;;9.48;2.03;;;7.70;99.90;;;;;;5029316;28;20175;-60
2021/11/01 04:55:35;;;;;;;14.40;1.90;;;7.70;99.90;;;;;;5013783;28;20101;-60
2021/11/01 04:58:02;;;;;;;10.35;2.33;;;7.70;99.90;;;;;;5025526;28;20117;-61
2021/11/01 05:00:27;;;;;;;13.30;1.95;;;7.60;99.90;;;;;;5031631;28;20052;-58
2021/11/01 05:03:08;;;;;;;13.20;2.38;;;7.60;99.90;;;;;;5027808;28;20399;-61
2021/11/01 05:05:34;;;;;;;8.48;2.20;;;7.50;99.90;;;;;;5025159;28;20029;-58
2021/11/01 05:08:00;;;;;;;7.75;2.08;;;7.50;99.90;;;;;;5028353;28;20025;-58
2021/11/01 05:12:58;;;;;;;7.07;1.77;;;7.50;99.90;;;;;;5029503;28;20022;-60
2021/11/01 05:15:35;;;;;;;13.95;3.28;;;7.50;99.90;;;;;;5027685;28;20022;-60
2021/11/01 05:18:17;;;;;;;11.90;1.77;;;7.50;99.90;;;;;;5026703;28;20033;-59
2021/11/01 05:20:49;;;;;;;12.80;2.45;;;7.40;99.90;;;;;;5016106;28;20028;-61
2021/11/01 05:23:40;;;;;;;19.52;2.92;;;7.50;99.90;;;;;;5009671;28;20025;-60
2021/11/01 05:26:08;;;;;;;10.98;2.30;;;7.50;99.90;;;;;;5016295;28;20045;-55
2021/11/01 05:28:44;;;;;;;14.05;2.22;;;7.60;99.90;;;;;;5029229;28;20052;-60
2021/11/01 05:31:17;;;;;;;14.48;2.70;;;7.60;99.90;;;;;;5015583;28;20030;-61
2021/11/01 05:36:12;;;;;;;13.85;2.55;;;7.70;99.90;;;;;;5014170;28;20037;-61
2021/11/01 05:38:37;;;;;;;13.45;2.55;;;7.70;99.90;;;;;;5016511;28;20026;-61
2021/11/01 05:41:03;;;;;;;13.95;2.97;;;7.70;99.90;;;;;;5009679;28;20097;-61
2021/11/01 05:43:29;;;;;;;15.05;2.75;;;7.70;99.90;;;;;;5018594;28;20026;-60
2021/11/01 05:45:55;;;;;;;12.50;2.47;;;7.80;99.90;;;;;;5019710;28;20092;-61
2021/11/01 05:48:20;;;;;;;10.38;2.13;;;7.80;99.90;;;;;;5022280;28;20044;-61
2021/11/01 05:50:46;;;;;;;20.88;3.10;;;7.80;99.90;;;;;;5014196;28;20487;-60
2021/11/01 05:53:13;;;;;;;9.52;2.10;;;7.90;99.90;;;;;;5021460;28;20041;-61
2021/11/01 06:06:30;;;;;;;12.77;2.10;;;7.80;99.90;;;;;;5022150;28;20099;-58
2021/11/01 06:13:55;;;;;;;13.00;2.05;;;7.90;99.90;;;;;;5022253;28;20080;-59
2021/11/01 06:16:21;;;;;;;12.00;2.30;;;7.90;99.90;;;;;;5021894;28;20797;-59
2021/11/01 06:18:48;;;;;;;11.07;2.20;;;7.90;99.90;;;;;;5024197;28;20029;-58
2021/11/01 06:21:16;;;;;;;13.80;1.98;;;8.00;99.90;;;;;;5013801;28;20571;-59
2021/11/01 06:23:44;;;;;;;11.82;2.08;;;8.00;99.90;;;;;;5021237;28;20037;-60
2021/11/01 06:26:11;;;;;;;15.55;2.03;;;8.00;99.90;;;;;;5013734;28;20054;-59
2021/11/01 06:28:41;;;;;;;11.68;2.03;;;8.00;99.90;;;;;;5023374;28;20109;-61
2021/11/01 06:31:22;;;;;;;17.58;2.95;;;8.00;99.90;;;;;;5021326;28;20029;-59
2021/11/01 06:34:04;;;;;;;12.88;2.15;;;8.00;99.90;;;;;;5025835;28;20040;-60
2021/11/01 06:42:01;;;;;;;10.65;1.83;;;7.90;99.90;;;;;;5017903;28;19909;-60
2021/11/01 06:49:57;;;;;;;14.35;2.28;;;7.90;99.90;;;;;;5027695;28;20171;-60
2021/11/01 07:16:50;;;;;;;;;;;8.10;99.90;;;;;;5016003;28;20388;-60
2021/11/01 07:19:30;;;;;;;21.45;1.98;;;8.20;99.90;;;;;;5019202;28;19982;-59
2021/11/01 07:38:29;;;;;;;;;;;8.70;99.90;;;;;;5014555;28;20036;-59
2021/11/01 08:21:50;;;;;;;15.07;2.33;;;9.50;99.90;;;;;;5020796;28;20028;-61
2021/11/01 08:40:26;;;;;;;18.85;2.67;;;10.00;99.90;;;;;;5026812;28;20029;-61
2021/11/01 08:43:11;;;;;;;13.70;1.63;;;10.10;99.90;;;;;;5015249;28;20079;-61
2021/11/01 08:45:56;;;;;;;8.93;1.73;;;10.20;99.90;;;;;;5012967;28;20029;-60
2021/11/01 09:04:32;;;;;;;14.88;2.10;;;11.10;99.90;;;;;;5009574;28;20080;-62
2021/11/01 09:07:25;;;;;;;8.38;1.38;;;11.10;99.90;;;;;;5010783;28;20033;-62
2021/11/01 09:25:54;;;;;;;8.95;1.88;;;11.50;99.90;;;;;;5019814;28;20326;-61
2021/11/01 09:28:32;;;;;;;6.43;2.33;;;11.80;99.90;;;;;;5021350;28;20030;-61
2021/11/01 09:39:44;;;;;;;12.55;2.55;;;11.80;99.90;;;;;;4987701;28;20369;-58
2021/11/01 09:42:07;;;;;;;11.27;2.20;;;12.00;99.90;;;;;;5001901;28;20030;-59
2021/11/01 09:44:33;;;;;;;17.83;6.28;;;12.20;99.90;;;;;;5008454;28;21612;-60
2021/11/01 09:47:00;;;;;;;8.25;1.95;;;12.40;99.90;;;;;;5003221;28;20026;-59
2021/11/01 09:49:28;;;;;;;9.40;1.80;;;12.50;99.90;;;;;;5005047;28;20486;-59
2021/11/01 09:51:57;;;;;;;12.43;2.50;;;12.50;99.90;;;;;;5007687;28;20029;-59
2021/11/01 09:54:26;;;;;;;8.25;2.15;;;12.60;99.90;;;;;;5005760;28;20395;-58
2021/11/01 09:57:02;;;;;;;9.40;1.50;;;12.60;99.90;;;;;;5010551;28;20491;-59
2021/11/01 09:59:37;;;;;;;11.40;1.80;;;12.60;99.90;;;;;;5010787;28;20037;-59
2021/11/01 10:02:04;;;;;;;6.38;2.22;;;12.60;99.90;;;;;;5007452;28;20601;-59
2021/11/01 10:04:34;;;;;;;9.02;1.27;;;12.40;99.90;;;;;;5003071;28;20406;-59
2021/11/01 10:07:19;;;;;;;4.82;1.23;;;12.50;99.90;;;;;;5000256;28;20026;-58
2021/11/01 10:09:53;;;;;;;6.55;1.27;;;12.60;99.90;;;;;;5005102;28;20025;-58
2021/11/01 10:12:33;;;;;;;6.72;1.65;;;12.80;99.90;;;;;;5004802;28;20038;-58
2021/11/01 10:18:19;;;;;;;6.93;2.72;;;13.10;99.90;;;;;;5004652;28;20025;-59
2021/11/01 10:20:50;;;;;;;11.02;2.13;;;13.40;99.90;;;;;;5008494;28;20038;-58
2021/11/01 10:23:23;;;;;;;3.65;1.13;;;13.50;99.90;;;;;;5004939;28;20097;-57
2021/11/01 10:25:50;;;;;;;10.30;2.27;;;13.40;99.90;;;;;;5004127;28;20094;-58
2021/11/01 10:28:29;;;;;;;4.47;1.13;;;13.30;99.90;;;;;;5003251;28;20042;-60
2021/11/01 10:31:06;;;;;;;4.63;1.17;;;13.30;99.90;;;;;;5007943;28;20491;-59
2021/11/01 10:33:43;;;;;;;5.90;1.20;;;13.30;99.90;;;;;;5008551;28;20060;-59
2021/11/01 10:36:09;;;;;;;5.00;1.17;;;13.30;99.90;;;;;;4995728;28;20037;-57
2021/11/01 10:38:37;;;;;;;11.10;2.83;;;13.20;99.90;;;;;;5008359;28;20061;-58
2021/11/01 10:41:33;;;;;;;9.02;1.25;;;13.00;99.90;;;;;;5008497;28;20030;-59
2021/11/01 10:44:10;;;;;;;5.30;1.23;;;12.90;99.90;;;;;;5002172;28;20034;-58
2021/11/01 11:11:32;;;;;;;4.97;1.00;;;13.20;99.90;;;;;;5005310;28;20036;-57
2021/11/01 11:14:26;;;;;;;4.68;1.02;;;12.90;99.90;;;;;;5002653;28;20117;-59
2021/11/01 11:47:54;;;;;;;8.73;1.23;;;13.10;99.90;;;;;;5005320;28;20033;-59
2021/11/01 11:50:26;;;;;;;6.07;0.90;;;13.40;99.90;;;;;;5003141;28;20030;-60
2021/11/01 11:52:52;;;;;;;4.68;1.05;;;13.70;99.90;;;;;;5009651;28;20032;-60
2021/11/01 11:55:29;;;;;;;7.28;2.17;;;13.90;99.90;;;;;;4999366;28;20026;-59
2021/11/01 11:58:00;;;;;;;13.90;3.00;;;14.10;99.90;;;;;;5002608;28;20181;-60
2021/11/01 12:00:28;;;;;;;12.00;2.55;;;14.10;99.30;;;;;;5002303;28;20457;-58
2021/11/01 12:02:56;;;;;;;4.72;1.23;;;14.10;99.50;;;;;;5002803;28;20030;-60
2021/11/01 12:19:04;;;;;;;8.40;1.30;;;13.20;99.90;;;;;;5009228;28;20041;-58
2021/11/01 12:21:35;;;;;;;5.43;1.10;;;13.10;99.70;;;;;;5012760;28;20080;-61
2021/11/01 12:24:01;;;;;;;8.20;1.30;;;13.00;99.90;;;;;;5002924;28;20045;-60
2021/11/01 12:26:28;;;;;;;6.88;1.50;;;13.00;99.90;;;;;;5009629;28;20040;-58
2021/11/01 12:28:57;;;;;;;5.35;1.13;;;13.20;99.90;;;;;;5010296;28;20096;-60
2021/11/01 12:31:25;;;;;;;6.75;1.50;;;13.40;99.90;;;;;;5008641;28;20513;-59
2021/11/01 12:39:10;;;;;;;;;;;13.50;99.90;;;;;;5007604;28;20457;-60
2021/11/01 12:41:50;;;;;;;3.83;1.13;;;13.50;99.50;;;;;;5011602;28;19913;-60
2021/11/01 12:47:39;;;;;;;4.75;1.10;;;13.60;98.60;;;;;;4995667;28;20041;-59
2021/11/01 12:58:31;;;;;;;4.00;1.75;;;13.40;98.10;;;;;;5006691;28;20041;-59
2021/11/01 13:01:09;;;;;;;6.07;1.65;;;13.30;97.60;;;;;;5011522;28;20034;-59
2021/11/01 13:03:36;;;;;;;3.63;1.52;;;13.30;97.90;;;;;;5008750;28;20040;-59
2021/11/01 13:06:08;;;;;;;5.32;1.00;;;13.20;97.90;;;;;;5019256;28;20091;-59
2021/11/01 13:08:47;;;;;;;8.23;1.40;;;13.20;98.40;;;;;;4970550;28;20051;-58
2021/11/01 13:19:14;;;;;;;3.75;1.00;;;13.00;98.90;;;;;;5008093;28;20076;-58
2021/11/01 13:22:00;;;;;;;5.35;0.90;;;13.10;98.50;;;;;;5010930;28;20037;-56
2021/11/01 13:38:30;;;;;;;3.92;1.20;;;13.30;98.40;;;;;;5018390;28;20513;-59
2021/11/01 13:40:56;;;;;;;5.05;1.20;;;13.30;98.30;;;;;;5009346;28;20049;-59
2021/11/01 13:43:30;;;;;;;8.25;1.50;;;13.30;97.50;;;;;;5014249;28;20111;-59
2021/11/01 13:46:00;;;;;;;3.83;1.13;;;13.30;97.90;;;;;;5003521;28;20455;-58
2021/11/01 13:48:27;;;;;;;1.85;1.20;;;13.30;97.40;;;;;;4995463;28;20062;-58
2021/11/01 13:51:02;;;;;;;5.63;1.42;;;13.40;97.40;;;;;;5009929;28;20492;-56
2021/11/01 13:53:29;;;;;;;6.70;1.20;;;13.30;97.20;;;;;;5007124;28;20022;-59
2021/11/01 13:56:15;;;;;;;3.88;1.20;;;13.30;97.70;;;;;;5002298;28;20043;-59
2021/11/01 13:58:53;;;;;;;9.98;1.08;;;13.20;97.30;;;;;;5005088;28;20034;-57
2021/11/01 14:12:13;;;;;;;2.25;0.95;;;12.90;97.60;;;;;;5008904;28;20040;-58
2021/11/01 14:33:20;;;;;;;6.72;1.65;;;12.60;98.40;;;;;;5006696;28;20431;-57
2021/11/01 15:18:45;;;;;;;40.42;20.45;;;11.70;99.90;;;;;;4981177;28;20076;-58
2021/11/01 15:29:39;;;;;;;19.17;9.80;;;11.40;99.90;;;;;;5023556;28;20032;-58
2021/11/01 15:37:57;;;;;;;15.45;9.18;;;11.20;99.90;;;;;;5027648;28;20104;-59
2021/11/01 16:19:01;;;;;;;9.35;3.97;;;9.80;99.90;;;;;;5065625;28;20043;-59
2021/11/01 16:21:27;;;;;;;7.40;2.78;;;9.60;99.90;;;;;;5028352;28;20166;-62
2021/11/01 16:23:54;;;;;;;6.15;2.65;;;9.50;99.90;;;;;;5053496;28;20505;-61
2021/11/01 16:26:27;;;;;;;9.27;4.72;;;9.40;99.90;;;;;;5058752;28;20033;-60
2021/11/01 16:29:03;;;;;;;8.27;4.30;;;9.30;99.90;;;;;;5052622;28;20025;-61
2021/11/01 16:31:45;;;;;;;9.10;3.47;;;9.30;99.90;;;;;;5066940;28;20294;-59
2021/11/01 16:34:20;;;;;;;10.65;3.60;;;9.30;99.90;;;;;;5040622;28;20104;-60
2021/11/01 16:39:20;;;;;;;8.80;3.17;;;9.10;99.90;;;;;;5052006;28;20406;-61
2021/11/01 16:41:48;;;;;;;11.25;3.88;;;9.00;99.90;;;;;;5052093;28;20280;-62
2021/11/01 16:44:28;;;;;;;4.63;2.47;;;9.00;99.90;;;;;;5050249;28;20406;-60
2021/11/01 16:46:55;;;;;;;12.05;3.53;;;9.00;99.90;;;;;;5045339;28;20543;-60
2021/11/01 16:49:22;;;;;;;12.43;4.90;;;8.90;99.90;;;;;;5055218;28;20016;-61
2021/11/01 16:51:49;;;;;;;10.82;3.60;;;8.90;99.90;;;;;;5056260;28;20031;-61
2021/11/01 16:54:19;;;;;;;15.02;5.30;;;8.90;99.90;;;;;;5058035;28;20032;-61
2021/11/01 17:02:26;;;;;;;9.85;3.53;;;8.80;99.90;;;;;;5051636;28;20051;-61
2021/11/01 17:05:01;;;;;;;8.90;3.40;;;8.70;99.90;;;;;;5052536;28;20032;-60
2021/11/01 17:24:05;;;;;;;19.15;9.60;;;8.50;99.90;;;;;;5051101;28;20059;-60
2021/11/01 17:37:22;;;;;;;20.00;9.35;;;8.30;99.90;;;;;;5036443;28;20821;-60
2021/11/01 18:38:37;;;;;;;17.70;7.55;;;7.90;99.90;;;;;;5051321;28;20585;-59
2021/11/01 18:41:14;;;;;;;35.70;13.82;;;7.90;99.90;;;;;;5057442;28;20079;-59
2021/11/01 18:51:35;;;;;;;21.00;7.00;;;7.70;99.90;;;;;;5049416;28;20032;-60
2021/11/01 18:54:03;;;;;;;22.90;6.95;;;7.70;99.90;;;;;;5051368;28;20433;-60
2021/11/01 18:56:35;;;;;;;15.50;4.47;;;7.70;99.90;;;;;;5049139;28;20151;-60
2021/11/01 18:59:06;;;;;;;11.43;5.45;;;7.80;99.90;;;;;;5049813;28;20078;-60
2021/11/01 19:01:35;;;;;;;14.00;5.72;;;7.80;99.90;;;;;;5039646;28;20017;-60
2021/11/01 19:04:06;;;;;;;13.35;3.33;;;7.90;99.90;;;;;;5053650;28;20022;-60
2021/11/01 19:06:41;;;;;;;11.68;2.80;;;8.00;99.90;;;;;;5051403;28;20099;-60
2021/11/01 19:09:20;;;;;;;7.90;3.15;;;8.00;99.90;;;;;;5048696;28;20040;-60
2021/11/01 20:04:16;;;;;;;5.68;1.95;;;7.50;99.90;;;;;;5050063;28;20062;-60
2021/11/01 21:25:03;;;;;;;10.80;3.53;;;6.40;99.90;;;;;;5033432;28;20115;-60
2021/11/01 21:27:30;;;;;;;10.10;3.33;;;6.40;99.90;;;;;;5031944;28;20067;-60
2021/11/01 21:29:56;;;;;;;13.52;2.70;;;6.40;99.90;;;;;;5045577;28;20017;-61
2021/11/01 21:32:24;;;;;;;8.90;2.45;;;6.40;99.90;;;;;;5050446;28;20017;-61
2021/11/01 21:37:27;;;;;;;6.05;2.60;;;6.30;99.90;;;;;;5044669;28;20505;-61
2021/11/01 21:39:53;;;;;;;14.50;3.10;;;6.30;99.90;;;;;;5052171;28;20064;-62
2021/11/01 21:42:19;;;;;;;17.55;4.57;;;6.30;99.90;;;;;;5050171;28;20033;-60
2021/11/01 21:44:45;;;;;;;24.00;4.60;;;6.30;99.90;;;;;;5052183;28;20025;-61
2021/11/01 21:47:11;;;;;;;14.90;3.53;;;6.30;99.90;;;;;;5050843;28;20509;-61
2021/11/01 21:49:37;;;;;;;8.90;2.50;;;6.30;99.90;;;;;;5052717;28;20052;-61
2021/11/01 21:52:03;;;;;;;14.90;3.00;;;6.30;99.90;;;;;;5050299;28;20482;-60
2021/11/01 21:54:43;;;;;;;12.30;2.78;;;6.30;99.90;;;;;;5052463;28;20402;-60
2021/11/01 21:57:15;;;;;;;10.07;2.55;;;6.30;99.90;;;;;;5051082;28;20071;-60
2021/11/01 22:21:32;;;;;;;14.23;4.50;;;6.20;99.90;;;;;;5009843;28;20074;-59
2021/11/01 22:40:16;;;;;;;12.18;4.57;;;6.30;99.90;;;;;;5056401;28;20039;-58
2021/11/01 22:45:23;;;;;;;14.60;3.53;;;6.30;99.90;;;;;;5063080;28;20035;-59
2021/11/01 22:56:00;;;;;;;9.80;2.50;;;6.20;99.90;;;;;;5065810;28;20102;-58
2021/11/01 22:58:26;;;;;;;13.68;2.20;;;6.20;99.90;;;;;;5070355;28;20028;-56
2021/11/01 23:01:03;;;;;;;15.80;3.47;;;6.20;99.90;;;;;;5069735;28;20046;-58
2021/11/01 23:33:25;;;;;;;;;;;7.00;99.90;;;;;;5071076;28;20098;-58
2021/11/01 23:35:52;;;;;;;14.88;2.10;;;7.00;99.90;;;;;;5062268;28;20370;-60
2021/11/01 23:38:18;;;;;;;11.07;1.75;;;7.00;99.90;;;;;;5067042;28;20051;-58
2021/11/01 23:40:45;;;;;;;8.57;1.55;;;7.10;99.90;;;;;;5067353;28;20034;-58
2021/11/01 23:43:13;;;;;;;13.38;2.03;;;7.10;99.90;;;;;;5062415;28;20029;-59
2021/11/01 23:45:44;;;;;;;10.00;1.92;;;7.20;99.90;;;;;;5056261;28;20023;-57
2021/11/01 23:48:11;;;;;;;9.20;2.20;;;7.20;99.90;;;;;;5067490;28;20033;-60
2021/11/01 23:50:36;;;;;;;7.40;1.77;;;7.20;99.90;;;;;;5064179;28;20064;-58
2021/11/01 23:53:06;;;;;;;6.97;1.95;;;7.20;99.90;;;;;;5060210;28;20020;-57
2021/11/01 23:55:32;;;;;;;16.23;2.63;;;7.20;99.90;;;;;;5069726;28;20024;-59
2021/11/01 23:57:58;;;;;;;5.47;1.63;;;7.10;99.90;;;;;;5070421;28;20036;-58
